Time;durP1;ratioP1;P1;durP2;ratioP2;P2;SDS_P1;SDS_P2;PMS_P1;PMS_P2;Temp;Humidity;BMP_temperature;BMP_pressure;BME280_temperature;BME280_humidity;BME280_pressure;Samples;Min_cycle;Max_cycle;Signal;HPM_P1;HPM_P2
2021/08/24 00:00:46;;;;;;;6.63;3.13;;;;;;;14.90;59.51;101812.06;5043482;28;20034;-76
2021/08/24 00:03:11;;;;;;;7.10;3.13;;;;;;;14.84;59.20;101797.25;5043192;28;20095;-76
2021/08/24 00:05:37;;;;;;;7.03;3.20;;;;;;;14.83;59.36;101798.16;5043296;28;20045;-76
2021/08/24 00:08:06;;;;;;;4.30;2.80;;;;;;;14.84;59.25;101799.88;5043191;28;20037;-75
2021/08/24 00:10:37;;;;;;;6.57;2.97;;;;;;;14.80;59.33;101795.53;5043034;28;20129;-77
2021/08/24 00:13:02;;;;;;;6.00;3.50;;;;;;;14.80;59.36;101799.88;5041718;28;20401;-77
2021/08/24 00:15:28;;;;;;;6.38;3.10;;;;;;;14.74;59.32;101785.06;5042982;28;20030;-76
2021/08/24 00:17:54;;;;;;;4.65;3.00;;;;;;;14.81;59.26;101809.50;5042933;28;20022;-76
2021/08/24 00:20:20;;;;;;;5.05;2.85;;;;;;;14.82;59.11;101813.84;5043295;28;20027;-76
2021/08/24 00:22:45;;;;;;;5.47;2.70;;;;;;;14.83;58.97;101810.34;5043185;28;20053;-75
2021/08/24 00:25:13;;;;;;;4.00;2.60;;;;;;;14.84;58.44;101807.72;5042967;28;20049;-76
2021/08/24 00:27:40;;;;;;;4.00;2.78;;;;;;;14.84;58.40;101812.94;5042918;28;20025;-76
2021/08/24 00:30:07;;;;;;;6.78;2.97;;;;;;;14.85;58.15;101805.97;5043145;28;20029;-77
2021/08/24 00:32:33;;;;;;;5.53;2.90;;;;;;;14.83;57.91;101813.84;5042924;28;20040;-75
2021/08/24 00:34:58;;;;;;;4.15;2.70;;;;;;;14.83;58.03;101800.75;5043212;28;20025;-76
2021/08/24 00:37:24;;;;;;;4.38;2.85;;;;;;;14.86;57.73;101800.75;5041505;28;20413;-75
2021/08/24 00:39:50;;;;;;;4.40;2.72;;;;;;;14.84;57.73;101802.47;5043012;28;20045;-75
2021/08/24 00:42:19;;;;;;;5.00;2.75;;;;;;;14.87;57.72;101802.47;5042918;28;20017;-75
2021/08/24 00:44:47;;;;;;;4.82;3.30;;;;;;;14.79;57.85;101791.16;5043125;28;20088;-75
2021/08/24 00:47:15;;;;;;;5.60;2.83;;;;;;;14.84;58.01;101797.25;5046282;28;20025;-75
2021/08/24 00:49:42;;;;;;;4.57;2.97;;;;;;;14.79;57.98;101791.16;5046327;28;20029;-75
2021/08/24 00:52:11;;;;;;;4.50;2.92;;;;;;;14.75;58.21;101792.03;5046670;28;20061;-75
2021/08/24 00:54:37;;;;;;;7.78;2.85;;;;;;;14.66;58.47;101786.84;5046462;28;20022;-76
2021/08/24 00:57:10;;;;;;;5.80;2.72;;;;;;;14.65;58.49;101803.41;5046273;28;20021;-75
2021/08/24 00:59:35;;;;;;;5.20;2.83;;;;;;;14.60;58.54;101803.44;5046270;28;20025;-74
2021/08/24 01:02:00;;;;;;;6.43;3.10;;;;;;;14.53;58.41;101801.69;5046498;28;20495;-76
2021/08/24 01:04:29;;;;;;;3.67;2.92;;;;;;;14.46;58.49;101798.22;5046626;28;20029;-76
2021/08/24 01:07:01;;;;;;;4.20;3.15;;;;;;;14.48;58.46;101801.69;5046392;28;20476;-75
2021/08/24 01:09:45;;;;;;;;;;;;;;;14.54;58.14;101812.13;5046711;28;20113;-76
2021/08/24 01:12:18;;;;;;;7.68;2.63;;;;;;;14.49;58.32;101811.25;5046040;28;19923;-75
2021/08/24 01:14:59;;;;;;;6.68;2.67;;;;;;;14.52;58.35;101811.25;5046218;28;20021;-76
2021/08/24 01:17:28;;;;;;;7.13;3.05;;;;;;;14.51;58.30;101801.69;5046040;28;20033;-75
2021/08/24 01:20:23;;;;;;;5.13;2.45;;;;;;;14.58;58.02;101808.66;5046067;28;20037;-75
2021/08/24 01:23:13;;;;;;;5.32;3.05;;;;;;;14.61;58.11;101813.88;5044677;28;20099;-76
2021/08/24 01:25:54;;;;;;;4.82;3.08;;;;;;;14.62;57.93;101817.34;5046006;28;20071;-76
2021/08/24 01:29:13;;;;;;;4.97;3.03;;;;;;;14.62;58.03;101810.38;5045786;28;20025;-75
2021/08/24 01:31:56;;;;;;;4.45;2.38;;;;;;;14.58;58.10;101815.63;5003896;28;20137;-76
2021/08/24 01:34:22;;;;;;;3.97;2.50;;;;;;;14.59;58.30;101820.84;5003958;28;20625;-76
2021/08/24 01:36:56;;;;;;;5.05;3.15;;;;;;;14.58;58.40;101813.00;5003865;28;20037;-75
2021/08/24 01:39:31;;;;;;;2.78;2.33;;;;;;;14.55;58.33;101813.91;5003900;28;20164;-75
2021/08/24 01:42:25;;;;;;;4.68;2.80;;;;;;;14.57;58.41;101809.50;5003752;28;20040;-76
2021/08/24 01:45:19;;;;;;;4.18;2.40;;;;;;;14.56;58.47;101822.59;5001585;28;20066;-76
2021/08/24 01:47:49;;;;;;;6.30;3.22;;;;;;;14.53;58.59;101825.19;5003317;28;20022;-76
2021/08/24 01:50:27;;;;;;;5.32;3.20;;;;;;;14.46;58.87;101829.56;5003345;28;20065;-78
2021/08/24 01:52:58;;;;;;;6.45;3.28;;;;;;;14.39;59.65;101836.56;5003348;28;20057;-78
2021/08/24 01:55:27;;;;;;;6.55;3.92;;;;;;;14.27;59.83;101827.00;5003433;28;20090;-77
2021/08/24 01:58:16;;;;;;;6.95;3.22;;;;;;;14.17;60.06;101826.13;5001829;28;20034;-77
2021/08/24 02:00:47;;;;;;;7.50;3.42;;;;;;;14.13;60.33;101827.88;4986940;28;20041;-76
2021/08/24 02:03:15;;;;;;;5.93;3.58;;;;;;;14.08;60.68;101828.75;4987149;28;20092;-76
2021/08/24 02:05:49;;;;;;;7.40;3.90;;;;;;;14.00;61.17;101828.75;5022504;28;20434;-76
2021/08/24 02:08:20;;;;;;;7.65;3.33;;;;;;;13.89;61.50;101826.13;5044900;28;20068;-76
2021/08/24 02:10:49;;;;;;;7.38;3.75;;;;;;;13.80;62.33;101839.19;5044641;28;20460;-76
2021/08/24 02:13:18;;;;;;;9.00;4.30;;;;;;;13.73;62.68;101833.06;5044924;28;20073;-76
2021/08/24 02:15:48;;;;;;;8.18;3.83;;;;;;;13.57;63.22;101825.22;5043536;28;20085;-76
2021/08/24 02:18:18;;;;;;;8.70;4.15;;;;;;;13.47;64.14;101824.31;5043471;28;20069;-76
2021/08/24 02:20:51;;;;;;;10.90;4.28;;;;;;;13.42;64.39;101823.41;5044709;28;20081;-76
2021/08/24 02:23:23;;;;;;;6.38;4.15;;;;;;;13.38;65.03;101830.38;5044923;28;20033;-76
2021/08/24 02:25:52;;;;;;;7.53;4.50;;;;;;;13.29;65.51;101822.50;5045004;28;20036;-76
2021/08/24 02:28:22;;;;;;;6.70;4.40;;;;;;;13.22;65.10;101813.81;5044757;28;20516;-75
2021/08/24 02:31:14;;;;;;;6.88;3.85;;;;;;;13.22;64.71;101810.31;5043665;28;20077;-75
2021/08/24 02:33:51;;;;;;;6.60;4.22;;;;;;;13.14;64.46;101811.19;5044833;28;20021;-76
2021/08/24 02:36:17;;;;;;;10.00;4.10;;;;;;;13.11;64.77;101819.00;5044990;28;20044;-75
2021/08/24 02:38:51;;;;;;;8.38;3.92;;;;;;;13.06;64.85;101810.28;5044535;28;20036;-76
2021/08/24 02:41:26;;;;;;;5.63;3.60;;;;;;;12.96;64.84;101806.75;5044643;28;20055;-75
2021/08/24 02:44:10;;;;;;;10.02;4.13;;;;;;;12.99;64.94;101819.81;5044514;28;20037;-74
2021/08/24 02:46:40;;;;;;;7.93;4.05;;;;;;;12.91;65.18;101802.41;5044457;28;20021;-75
2021/08/24 02:49:11;;;;;;;5.75;4.10;;;;;;;12.95;65.41;101811.97;5044401;28;20021;-75
2021/08/24 02:51:37;;;;;;;7.32;4.53;;;;;;;12.93;65.46;101811.97;5044297;28;20060;-75
2021/08/24 02:54:17;;;;;;;7.35;4.47;;;;;;;12.90;65.74;101806.72;5043018;28;20060;-75
2021/08/24 02:56:43;;;;;;;8.52;4.68;;;;;;;12.88;66.00;101809.34;5044153;28;20029;-74
2021/08/24 02:59:08;;;;;;;7.20;4.43;;;;;;;12.86;66.10;101811.06;5044241;28;20035;-74
2021/08/24 03:01:35;;;;;;;6.88;4.55;;;;;;;12.82;66.16;101804.09;5044264;28;20028;-74
2021/08/24 03:04:01;;;;;;;6.10;4.35;;;;;;;12.77;66.32;101803.19;5044112;28;20470;-74
2021/08/24 03:06:28;;;;;;;7.78;4.43;;;;;;;12.76;66.59;101801.47;5043996;28;20056;-74
2021/08/24 03:08:53;;;;;;;7.20;3.90;;;;;;;12.74;66.63;101800.56;5043289;28;20057;-74
2021/08/24 03:11:25;;;;;;;6.80;4.53;;;;;;;12.70;66.67;101804.03;5043892;28;20077;-75
2021/08/24 03:14:15;;;;;;;8.30;4.28;;;;;;;12.70;66.57;101798.81;5044026;28;20465;-74
2021/08/24 03:17:16;;;;;;;7.63;4.65;;;;;;;12.75;66.53;101800.59;5043950;28;20033;-75
2021/08/24 03:19:44;;;;;;;7.10;4.00;;;;;;;12.74;66.47;101797.97;5030512;28;20111;-75
2021/08/24 03:22:12;;;;;;;6.88;4.03;;;;;;;12.76;66.80;101799.72;5043705;28;20017;-74
2021/08/24 03:24:38;;;;;;;6.95;4.07;;;;;;;12.78;66.60;101810.13;5043738;28;20028;-76
2021/08/24 03:27:07;;;;;;;7.50;3.95;;;;;;;12.76;66.75;101807.53;5044069;28;20025;-75
2021/08/24 03:29:32;;;;;;;12.48;4.28;;;;;;;12.71;66.95;101810.97;5043548;28;20310;-76
2021/08/24 03:31:58;;;;;;;8.38;4.38;;;;;;;12.69;67.03;101807.50;5043365;28;20030;-75
2021/08/24 03:34:25;;;;;;;6.47;4.22;;;;;;;12.64;67.12;101820.50;5043770;28;20017;-76
2021/08/24 03:36:50;;;;;;;6.70;3.70;;;;;;;12.62;67.29;101820.50;5043773;28;20021;-76
2021/08/24 03:39:16;;;;;;;6.13;4.25;;;;;;;12.61;67.31;101818.75;5043555;28;20051;-76
2021/08/24 03:41:42;;;;;;;6.88;3.75;;;;;;;12.59;67.47;101817.88;5043618;28;20036;-76
2021/08/24 03:44:08;;;;;;;6.88;4.38;;;;;;;12.57;67.47;101814.38;5043439;28;20022;-76
2021/08/24 03:46:33;;;;;;;5.60;3.88;;;;;;;12.57;67.60;101818.72;5043786;28;20033;-76
2021/08/24 03:48:58;;;;;;;5.90;3.83;;;;;;;12.52;67.47;101811.75;5043380;28;20036;-76
2021/08/24 03:51:25;;;;;;;6.63;4.40;;;;;;;12.60;67.71;101822.19;5043499;28;20052;-76
2021/08/24 03:53:50;;;;;;;6.05;4.13;;;;;;;12.64;67.76;101831.78;5043245;28;20022;-76
2021/08/24 03:56:16;;;;;;;5.57;3.58;;;;;;;12.64;67.68;101813.56;5043484;28;20021;-77
2021/08/24 03:58:41;;;;;;;6.18;3.78;;;;;;;12.77;67.53;101821.44;5043351;28;20530;-76
2021/08/24 04:01:11;;;;;;;7.55;3.47;;;;;;;12.86;67.21;101818.88;5043655;28;20018;-77
2021/08/24 04:03:37;;;;;;;7.60;3.72;;;;;;;12.89;67.03;101820.63;5043268;28;20026;-80
2021/08/24 04:06:03;;;;;;;5.65;3.58;;;;;;;12.94;67.23;101826.72;5043436;28;20064;-69
2021/08/24 04:08:29;;;;;;;6.00;3.78;;;;;;;12.99;67.21;101825.03;5043120;28;20025;-76
2021/08/24 04:10:55;;;;;;;5.50;3.65;;;;;;;13.03;67.18;101833.72;5042989;28;20081;-75
2021/08/24 04:13:21;;;;;;;5.93;3.95;;;;;;;13.09;67.22;101832.88;5043445;28;20021;-76
2021/08/24 04:15:46;;;;;;;4.82;3.40;;;;;;;13.14;67.00;101832.03;5043141;28;20025;-76
2021/08/24 04:18:12;;;;;;;8.68;3.85;;;;;;;13.17;66.85;101825.06;5043147;28;20404;-76
2021/08/24 04:20:39;;;;;;;5.07;3.20;;;;;;;13.29;66.63;101826.88;5042825;28;20040;-76
2021/08/24 04:23:05;;;;;;;4.85;3.70;;;;;;;13.32;66.55;101824.28;5047273;28;20033;-76
2021/08/24 04:25:30;;;;;;;5.47;4.00;;;;;;;13.33;66.64;101826.00;5047174;28;20018;-79
2021/08/24 04:27:55;;;;;;;5.18;3.50;;;;;;;13.50;66.47;101840.00;5047345;28;20246;-74
2021/08/24 04:30:21;;;;;;;5.78;4.00;;;;;;;13.58;66.44;101836.50;5047000;28;20021;-70
2021/08/24 04:32:47;;;;;;;6.75;4.20;;;;;;;13.67;66.17;101836.56;5046801;28;20364;-74
2021/08/24 04:35:14;;;;;;;7.13;4.32;;;;;;;13.72;66.28;101841.78;5046889;28;20036;-76
2021/08/24 04:37:40;;;;;;;8.82;4.95;;;;;;;13.79;66.32;101838.31;5046511;28;20036;-67
2021/08/24 04:40:06;;;;;;;7.28;4.28;;;;;;;13.97;66.49;101834.84;5046332;28;20022;-67
2021/08/24 04:42:32;;;;;;;10.25;4.90;;;;;;;14.37;66.47;101844.41;5047034;28;20032;-67
2021/08/24 04:44:58;;;;;;;8.55;4.60;;;;;;;14.75;66.37;101842.59;5045493;28;20041;-67
2021/08/24 04:47:26;;;;;;;6.80;3.95;;;;;;;15.23;66.24;101852.03;5046716;28;20033;-67
2021/08/24 04:49:52;;;;;;;6.75;3.78;;;;;;;15.80;65.58;101847.31;5046898;28;20022;-67
2021/08/24 04:52:17;;;;;;;10.48;3.78;;;;;;;16.37;64.76;101849.50;5046655;28;20064;-67
2021/08/24 04:54:43;;;;;;;7.82;3.67;;;;;;;16.94;63.47;101850.63;5046578;28;20518;-67
2021/08/24 04:57:08;;;;;;;6.30;3.85;;;;;;;17.44;61.84;101843.00;5046845;28;20026;-68
2021/08/24 04:59:34;;;;;;;5.95;3.22;;;;;;;17.83;60.87;101846.81;5046586;28;20021;-68
2021/08/24 05:02:00;;;;;;;4.60;3.35;;;;;;;18.09;59.50;101845.53;5046537;28;20262;-68
2021/08/24 05:04:25;;;;;;;6.88;3.35;;;;;;;18.25;58.85;101832.16;5046535;28;20021;-68
2021/08/24 05:06:52;;;;;;;5.75;3.33;;;;;;;18.56;58.12;101835.06;5046398;28;20029;-68
2021/08/24 05:09:18;;;;;;;4.57;3.05;;;;;;;18.99;56.96;101829.88;5046139;28;20498;-68
2021/08/24 05:11:44;;;;;;;7.13;3.35;;;;;;;19.16;55.72;101833.91;5046263;28;20473;-67
2021/08/24 05:14:09;;;;;;;6.28;3.10;;;;;;;19.11;54.98;101835.78;5046329;28;20029;-69
2021/08/24 05:16:35;;;;;;;4.72;3.63;;;;;;;18.98;54.92;101827.25;5046176;28;20442;-68
2021/08/24 05:19:01;;;;;;;6.05;3.33;;;;;;;18.80;54.81;101832.00;5046182;28;20022;-69
2021/08/24 05:21:26;;;;;;;9.95;3.60;;;;;;;18.65;54.91;101827.91;5046205;28;20108;-68
2021/08/24 05:23:52;;;;;;;6.47;3.30;;;;;;;18.90;54.76;101832.66;5046105;28;20501;-69
2021/08/24 05:26:19;;;;;;;5.90;3.13;;;;;;;19.28;54.55;101828.38;5046370;28;20040;-69
2021/08/24 05:28:45;;;;;;;4.38;3.05;;;;;;;19.64;53.56;101822.28;5045753;28;20375;-68
2021/08/24 05:31:11;;;;;;;6.32;2.90;;;;;;;19.96;53.01;101834.69;5046003;28;20028;-68
2021/08/24 05:33:37;;;;;;;4.70;3.05;;;;;;;20.12;52.13;101840.47;5045902;28;20017;-70
2021/08/24 05:36:03;;;;;;;4.65;3.03;;;;;;;20.10;52.03;101844.91;5045776;28;20029;-68
2021/08/24 05:38:30;;;;;;;7.45;2.80;;;;;;;20.11;52.18;101846.66;5045682;28;20029;-67
2021/08/24 05:40:56;;;;;;;6.28;2.90;;;;;;;20.13;51.54;101853.63;5045958;28;20053;-68
2021/08/24 05:43:23;;;;;;;7.82;3.05;;;;;;;19.98;51.42;101835.53;5046090;28;20017;-69
2021/08/24 05:45:56;;;;;;;5.25;3.45;;;;;;;19.94;51.57;101846.16;5045925;28;20021;-67
2021/08/24 05:48:22;;;;;;;4.78;2.75;;;;;;;20.04;51.10;101849.47;5045576;28;20021;-68
2021/08/24 05:50:47;;;;;;;5.10;2.65;;;;;;;20.31;50.45;101849.66;5045713;28;20119;-68
2021/08/24 05:53:13;;;;;;;4.95;2.88;;;;;;;20.50;50.07;101849.16;5045893;28;20056;-68
2021/08/24 05:55:38;;;;;;;6.15;2.97;;;;;;;20.87;49.67;101843.72;5045798;28;20417;-69
2021/08/24 05:58:04;;;;;;;3.83;2.90;;;;;;;21.57;48.51;101844.31;5045639;28;20269;-68
2021/08/24 06:00:29;;;;;;;7.20;3.08;;;;;;;22.29;46.80;101848.13;5045424;28;20025;-67
2021/08/24 06:02:54;;;;;;;7.03;2.75;;;;;;;22.90;44.73;101851.28;5045384;28;20017;-68
2021/08/24 06:05:20;;;;;;;6.88;2.80;;;;;;;23.37;43.44;101854.75;5045481;28;20033;-67
2021/08/24 06:07:45;;;;;;;8.65;2.47;;;;;;;23.69;42.52;101849.13;5045244;28;20036;-68
2021/08/24 06:10:11;;;;;;;4.05;2.55;;;;;;;24.22;40.64;101860.22;5045162;28;20117;-67
2021/08/24 06:12:36;;;;;;;6.00;2.03;;;;;;;24.57;39.22;101859.56;5045306;28;20029;-67
2021/08/24 06:15:03;;;;;;;6.80;2.53;;;;;;;24.94;38.51;101856.19;5045252;28;20021;-68
2021/08/24 06:17:29;;;;;;;3.05;1.85;;;;;;;25.28;37.22;101862.59;5043687;28;20021;-68
2021/08/24 06:19:54;;;;;;;3.47;1.73;;;;;;;25.66;36.35;101852.84;5044947;28;20029;-68
2021/08/24 06:22:20;;;;;;;2.85;2.15;;;;;;;25.93;35.50;101847.94;5045036;28;20094;-69
2021/08/24 06:24:45;;;;;;;2.53;1.92;;;;;;;26.18;34.96;101857.28;5045023;28;20018;-67
2021/08/24 06:27:10;;;;;;;7.07;2.30;;;;;;;26.34;34.46;101853.88;5043561;28;20068;-67
2021/08/24 06:29:36;;;;;;;2.90;2.10;;;;;;;26.71;33.42;101870.53;5044862;28;20458;-68
2021/08/24 06:32:05;;;;;;;5.03;2.30;;;;;;;26.87;33.79;101864.38;5044942;28;20032;-68
2021/08/24 06:34:31;;;;;;;3.88;2.05;;;;;;;26.89;33.18;101853.63;5044750;28;20025;-68
2021/08/24 06:36:57;;;;;;;3.45;2.10;;;;;;;26.87;33.66;101847.53;5044903;28;20017;-68
2021/08/24 06:39:22;;;;;;;4.63;2.13;;;;;;;26.88;33.33;101859.91;5044603;28;20079;-68
2021/08/24 06:41:47;;;;;;;3.65;1.88;;;;;;;27.12;33.24;101857.72;5044714;28;20026;-68
2021/08/24 06:44:13;;;;;;;2.90;1.70;;;;;;;27.36;32.56;101851.97;5043978;28;20080;-67
2021/08/24 06:46:39;;;;;;;4.03;1.85;;;;;;;27.52;32.13;101857.25;5044559;28;20021;-67
2021/08/24 06:49:06;;;;;;;2.72;1.88;;;;;;;27.68;31.46;101851.94;5044408;28;20060;-68
2021/08/24 06:51:32;;;;;;;3.67;2.05;;;;;;;27.80;31.35;101852.13;5044627;28;20051;-67
2021/08/24 06:53:57;;;;;;;2.92;1.80;;;;;;;27.78;31.47;101856.72;5044818;28;20037;-68
2021/08/24 06:56:23;;;;;;;3.88;1.58;;;;;;;27.97;30.34;101856.50;5044603;28;20025;-68
2021/08/24 06:58:48;;;;;;;2.45;1.60;;;;;;;28.27;29.84;101846.69;5043149;28;20032;-68
2021/08/24 07:01:19;;;;;;;3.35;1.50;;;;;;;28.57;29.79;101848.44;5043109;28;20108;-68
2021/08/24 07:03:45;;;;;;;2.15;1.48;;;;;;;28.66;29.24;101853.22;5044416;28;20026;-68
2021/08/24 07:06:11;;;;;;;3.25;1.58;;;;;;;28.77;29.49;101854.38;5043145;28;20044;-68
2021/08/24 07:08:36;;;;;;;3.80;1.67;;;;;;;28.62;29.71;101854.38;5043978;28;20691;-68
2021/08/24 07:11:02;;;;;;;3.20;1.65;;;;;;;28.67;30.34;101844.25;5044109;28;20060;-69
2021/08/24 07:13:28;;;;;;;2.40;1.30;;;;;;;28.54;30.48;101846.84;5044097;28;20148;-67
2021/08/24 07:15:54;;;;;;;2.10;1.58;;;;;;;28.49;30.42;101845.41;5044072;28;20430;-68
2021/08/24 07:18:19;;;;;;;3.60;1.30;;;;;;;28.45;30.28;101856.28;5043807;28;20398;-68
2021/08/24 07:20:52;;;;;;;2.42;1.48;;;;;;;28.38;30.57;101849.59;5044102;28;20021;-68
2021/08/24 07:23:17;;;;;;;2.60;1.63;;;;;;;28.44;30.05;101851.91;5044092;28;20040;-68
2021/08/24 07:25:43;;;;;;;3.47;1.60;;;;;;;28.37;29.81;101855.88;5044043;28;20026;-68
2021/08/24 07:28:10;;;;;;;2.42;1.40;;;;;;;28.50;29.17;101858.66;5043896;28;20025;-68
2021/08/24 07:30:39;;;;;;;3.92;1.70;;;;;;;28.60;29.02;101864.28;5043738;28;20029;-68
2021/08/24 07:33:04;;;;;;;2.33;1.55;;;;;;;28.67;28.52;101864.78;5043776;28;20044;-68
2021/08/24 07:35:29;;;;;;;3.47;1.40;;;;;;;28.74;28.28;101866.09;5043949;28;20104;-68
2021/08/24 07:37:55;;;;;;;2.90;1.48;;;;;;;29.01;27.69;101875.16;5043584;28;20021;-68
2021/08/24 07:40:22;;;;;;;3.75;1.55;;;;;;;29.37;26.72;101870.19;5042340;28;20089;-68
2021/08/24 07:42:48;;;;;;;2.75;1.42;;;;;;;29.63;26.18;101881.00;5043402;28;20025;-68
2021/08/24 07:45:13;;;;;;;4.60;1.73;;;;;;;29.88;26.08;101864.16;5043642;28;20022;-68
2021/08/24 07:47:38;;;;;;;4.07;1.42;;;;;;;30.16;25.57;101867.59;5042290;28;20648;-68
2021/08/24 07:50:05;;;;;;;9.23;1.50;;;;;;;30.42;25.90;101864.94;5043411;28;20056;-68
2021/08/24 07:52:31;;;;;;;2.95;1.67;;;;;;;30.74;25.26;101863.63;5043539;28;20029;-68
2021/08/24 07:54:56;;;;;;;3.25;2.03;;;;;;;30.87;25.32;101876.16;5043460;28;20037;-68
2021/08/24 07:57:21;;;;;;;4.45;1.75;;;;;;;31.04;25.71;101880.28;5043486;28;20025;-68
2021/08/24 07:59:48;;;;;;;2.40;1.60;;;;;;;31.25;25.77;101877.00;5043236;28;20026;-66
2021/08/24 08:02:15;;;;;;;5.03;2.03;;;;;;;31.47;25.90;101870.06;5043451;28;20081;-67
2021/08/24 08:04:41;;;;;;;3.65;2.10;;;;;;;31.63;26.03;101878.66;5043396;28;20029;-67
2021/08/24 08:07:07;;;;;;;4.00;1.92;;;;;;;31.75;26.07;101874.19;5043576;28;20017;-67
2021/08/24 08:09:32;;;;;;;5.32;2.30;;;;;;;31.96;25.97;101872.69;5043135;28;20117;-67
2021/08/24 08:11:58;;;;;;;3.72;1.90;;;;;;;31.99;25.54;101876.00;5043366;28;20049;-66
2021/08/24 08:14:23;;;;;;;3.53;2.03;;;;;;;31.91;25.71;101873.00;5043321;28;20466;-66
2021/08/24 08:16:49;;;;;;;3.90;2.05;;;;;;;32.06;25.76;101871.00;5043132;28;20029;-66
2021/08/24 08:19:15;;;;;;;2.85;1.60;;;;;;;32.00;25.49;101877.69;5043156;28;20094;-66
2021/08/24 08:21:41;;;;;;;4.70;1.92;;;;;;;31.98;25.38;101873.44;5043358;28;20026;-66
2021/08/24 08:24:07;;;;;;;3.92;1.92;;;;;;;32.27;24.88;101865.78;5043249;28;20029;-67
2021/08/24 08:26:33;;;;;;;3.60;1.83;;;;;;;31.95;25.21;101866.44;5043323;28;20032;-67
2021/08/24 08:29:02;;;;;;;3.10;1.67;;;;;;;31.83;25.60;101872.75;5043021;28;20108;-68
2021/08/24 08:31:29;;;;;;;3.40;1.80;;;;;;;31.95;25.13;101871.00;5043370;28;20105;-68
2021/08/24 08:33:54;;;;;;;7.13;1.60;;;;;;;32.14;25.01;101871.25;5043239;28;20025;-67
2021/08/24 08:36:20;;;;;;;3.45;1.77;;;;;;;32.44;24.78;101878.84;5043191;28;20128;-67
2021/08/24 08:38:45;;;;;;;3.67;1.67;;;;;;;32.71;24.56;101875.81;5042808;28;20462;-68
2021/08/24 08:41:38;;;;;;;4.63;2.13;;;;;;;33.01;24.25;101876.13;5043066;28;20021;-67
2021/08/24 08:44:21;;;;;;;3.28;2.05;;;;;;;33.19;24.13;101873.81;5043063;28;20036;-68
2021/08/24 08:47:17;;;;;;;3.90;1.85;;;;;;;32.92;23.97;101877.75;5043223;28;20081;-68
2021/08/24 08:49:53;;;;;;;4.03;1.55;;;;;;;32.56;25.03;101877.06;5015907;28;20033;-68
2021/08/24 08:52:41;;;;;;;3.88;1.45;;;;;;;32.61;24.94;101872.16;5043503;28;20030;-68
2021/08/24 08:55:20;;;;;;;3.78;1.88;;;;;;;32.64;24.34;101888.03;5043037;28;20085;-68
2021/08/24 08:58:06;;;;;;;4.82;2.05;;;;;;;32.56;24.74;101877.91;5043056;28;20036;-68
2021/08/24 09:00:47;;;;;;;5.35;2.13;;;;;;;32.55;24.75;101891.47;5042828;28;20021;-68
2021/08/24 09:03:22;;;;;;;5.45;2.25;;;;;;;32.52;25.32;101871.06;5042954;28;20022;-68
2021/08/24 09:05:49;;;;;;;4.68;1.73;;;;;;;32.76;24.93;101878.13;5042954;28;20029;-68
2021/08/24 09:08:20;;;;;;;4.15;1.77;;;;;;;33.19;24.43;101883.69;5046087;28;20377;-67
2021/08/24 09:10:53;;;;;;;5.30;2.33;;;;;;;33.36;24.50;101882.28;5046309;28;20041;-68
2021/08/24 09:13:29;;;;;;;6.97;1.95;;;;;;;33.45;24.24;101886.06;5046468;28;20130;-68
2021/08/24 09:16:03;;;;;;;3.88;1.83;;;;;;;33.46;24.38;101882.38;5046453;28;20049;-67
2021/08/24 09:19:04;;;;;;;3.72;2.00;;;;;;;33.37;23.56;101881.31;5046412;28;20052;-67
2021/08/24 09:21:40;;;;;;;3.25;1.65;;;;;;;33.16;23.87;101870.50;5046597;28;20089;-67
2021/08/24 09:24:15;;;;;;;3.45;1.92;;;;;;;33.30;24.67;101874.72;5046493;28;20025;-68
2021/08/24 09:26:50;;;;;;;3.40;1.67;;;;;;;33.24;24.35;101876.09;5046260;28;20528;-68
2021/08/24 09:29:18;;;;;;;5.90;2.00;;;;;;;33.30;24.68;101869.34;5046060;28;20021;-68
2021/08/24 09:31:44;;;;;;;4.95;2.00;;;;;;;33.41;24.50;101871.13;5046191;28;20037;-68
2021/08/24 09:34:14;;;;;;;3.05;1.60;;;;;;;33.37;24.56;101865.19;5046040;28;20017;-67
2021/08/24 09:36:40;;;;;;;3.83;1.85;;;;;;;32.99;24.55;101864.66;5045998;28;20071;-68
2021/08/24 09:39:06;;;;;;;3.05;1.52;;;;;;;32.76;24.86;101873.63;5045801;28;20029;-67
2021/08/24 09:41:38;;;;;;;2.72;1.40;;;;;;;32.63;24.40;101860.31;5046027;28;20024;-66
2021/08/24 09:44:26;;;;;;;3.17;1.63;;;;;;;32.53;24.47;101867.41;5045924;28;20036;-68
2021/08/24 09:47:01;;;;;;;3.72;1.45;;;;;;;32.40;24.79;101878.22;5045760;28;20021;-68
2021/08/24 09:49:30;;;;;;;4.45;1.75;;;;;;;32.63;23.99;101862.16;5046227;28;20296;-68
2021/08/24 09:52:02;;;;;;;5.55;1.70;;;;;;;32.81;24.17;101873.25;5045753;28;20029;-67
2021/08/24 09:54:30;;;;;;;5.00;1.88;;;;;;;32.83;24.49;101870.44;5045857;28;20033;-68
2021/08/24 09:57:02;;;;;;;4.57;1.70;;;;;;;32.91;24.11;101864.44;5045794;28;20029;-68
2021/08/24 09:59:36;;;;;;;5.70;1.75;;;;;;;32.72;24.52;101872.16;5045491;28;20017;-68
2021/08/24 10:02:03;;;;;;;4.25;1.40;;;;;;;32.97;24.30;101861.25;5045458;28;20021;-68
2021/08/24 10:04:29;;;;;;;2.85;1.52;;;;;;;33.23;23.87;101869.03;5045477;28;20052;-68
2021/08/24 10:07:05;;;;;;;5.30;1.50;;;;;;;33.15;23.56;101861.56;5045527;28;20025;-68
2021/08/24 10:09:36;;;;;;;5.13;1.60;;;;;;;33.00;23.43;101866.38;5045227;28;20392;-68
2021/08/24 10:12:23;;;;;;;2.80;1.42;;;;;;;32.99;23.22;101861.97;5045184;28;20120;-68
2021/08/24 10:14:50;;;;;;;4.00;1.60;;;;;;;33.02;22.87;101861.72;5043927;28;20029;-68
2021/08/24 10:17:31;;;;;;;3.47;1.50;;;;;;;32.80;22.93;101865.31;5045178;28;20022;-68
2021/08/24 10:19:57;;;;;;;5.18;1.65;;;;;;;31.69;24.14;101860.38;5044703;28;20045;-68
2021/08/24 10:22:36;;;;;;;4.25;1.67;;;;;;;31.27;25.24;101862.50;5045349;28;20032;-68
2021/08/24 10:25:07;;;;;;;2.75;1.65;;;;;;;31.62;25.20;101862.66;5045236;28;20105;-68
2021/08/24 10:27:37;;;;;;;3.60;1.73;;;;;;;31.96;24.62;101859.25;5045072;28;20021;-68
2021/08/24 10:30:10;;;;;;;3.90;1.52;;;;;;;32.10;24.46;101860.88;5044877;28;20036;-68
2021/08/24 10:32:40;;;;;;;4.30;1.50;;;;;;;32.27;25.08;101852.34;5044966;28;20108;-68
2021/08/24 10:35:27;;;;;;;5.55;1.80;;;;;;;32.60;24.81;101846.25;5044785;28;20080;-68
2021/08/24 10:37:54;;;;;;;2.33;1.45;;;;;;;32.83;25.03;101846.25;5044842;28;20476;-68
2021/08/24 10:40:23;;;;;;;4.13;1.35;;;;;;;32.85;24.73;101850.50;5044653;28;20025;-69
2021/08/24 10:43:15;;;;;;;4.72;2.05;;;;;;;32.58;24.59;101849.06;5044773;28;20032;-69
2021/08/24 10:45:46;;;;;;;4.20;1.88;;;;;;;32.31;25.65;101836.84;5044538;28;20458;-69
2021/08/24 10:48:21;;;;;;;;;;;;;;;32.23;25.55;101845.50;5045108;28;20033;-69
2021/08/24 10:50:57;;;;;;;4.53;1.92;;;;;;;32.15;24.78;101851.50;5044762;28;19945;-69
2021/08/24 10:53:25;;;;;;;3.65;1.83;;;;;;;31.61;25.42;101848.41;5044734;28;20246;-69
2021/08/24 10:55:57;;;;;;;2.63;1.77;;;;;;;30.98;26.60;101829.78;5044408;28;20028;-69
2021/08/24 10:58:26;;;;;;;3.60;2.00;;;;;;;30.54;27.05;101831.06;5043173;28;20061;-69
2021/08/24 11:01:01;;;;;;;4.05;1.60;;;;;;;30.32;27.93;101831.75;5044319;28;20021;-69
2021/08/24 11:03:55;;;;;;;3.45;2.17;;;;;;;30.30;27.04;101834.50;5044503;28;20025;-68
2021/08/24 11:06:54;;;;;;;4.40;1.90;;;;;;;30.12;27.35;101844.69;5044600;28;20022;-68
2021/08/24 11:09:35;;;;;;;3.83;1.80;;;;;;;30.11;27.12;101840.31;5044068;28;20060;-68
2021/08/24 11:12:06;;;;;;;3.15;1.77;;;;;;;29.98;27.22;101839.41;5044128;28;20042;-68
2021/08/24 11:15:25;;;;;;;3.45;1.60;;;;;;;29.72;27.25;101844.72;5042983;28;20032;-68
2021/08/24 11:17:57;;;;;;;2.72;1.50;;;;;;;29.96;27.05;101841.34;5002318;28;20093;-68
2021/08/24 11:20:25;;;;;;;8.45;1.95;;;;;;;29.73;27.30;101851.81;5002040;28;20058;-68
2021/08/24 11:23:12;;;;;;;2.92;1.60;;;;;;;28.98;28.44;101841.44;5002270;28;20454;-68
2021/08/24 11:26:17;;;;;;;5.30;1.63;;;;;;;28.84;28.99;101850.34;5002028;28;20053;-68
2021/08/24 11:28:55;;;;;;;4.00;1.77;;;;;;;28.60;29.10;101842.91;4994690;28;20057;-69
2021/08/24 11:31:30;;;;;;;3.00;1.95;;;;;;;27.86;30.10;101834.91;5001656;28;20035;-68
2021/08/24 11:34:04;;;;;;;3.05;1.70;;;;;;;27.33;30.36;101833.47;5001933;28;20340;-68
2021/08/24 11:36:30;;;;;;;2.10;1.20;;;;;;;26.96;30.51;101828.38;5001839;28;20223;-67
2021/08/24 11:39:04;;;;;;;2.38;1.38;;;;;;;26.22;31.78;101831.38;5001546;28;20057;-68
2021/08/24 11:41:29;;;;;;;6.15;1.70;;;;;;;25.65;32.90;101825.41;5001764;28;20033;-68